5MI2 weather

Mc Question's Airport
Leroy, Michigan, United States

Public forecast

Using degrees Fahrenheit for public forecast. Weather courtesy of forecast.io.

METAR (pilot weather report)

Closest report is Wexford County Airport, 11.9 nm (22.1 km) N. Retrieved 2019/06/19 22:35 UTC (0 seconds ago):

KCAD 192235Z AUTO 13003KT 10SM BKN025 OVC035 20/17 A2974 RMK AO2 T02000172

TAF (pilot weather forecast)

Forecast is more than 6 hours old.

Closest forecast is Manistee Co Blacker Airport, 36.8 nm (68.1 km) WNW. Retrieved 2019/06/19 12:33 UTC (10 hours ago):

TAF KMBL 191132Z 1912/2012 00000KT P6SM OVC012 TEMPO 1912/1914 5SM -RA BR OVC003 FM191400 00000KT P6SM -RA OVC015 FM191600 36005KT P6SM BKN025 FM191800 35006KT P6SM BKN035 FM200300 VRB03KT P6SM BKN045 FM200500 VRB04KT P6SM BKN060